SUSQUEDA - VEÏNAT DEL COLL (La Selva)





Hora UTC 21:20
Temperatura 19.7 ºC
Humedad 85.3 %
Presión 1019.9 hPa
Pluja 0.0 mm
Velocidad viento 4.1 km/h
Dirección viento ESE
Radiación solar 0.1 W/m²

Datos diarios 2024-07-24



Hora UTC (invierno +1h; verano +2h)
Temperatura (ºC) Humedad (%) Presión (hPa) Velocidad viento (km/h) Precipitación (mm) Radiación solar (W/m²)
Hora UTC Aire Humedad Presión Vel. Dir. Vel. Max Dir. Intent. máx 5 min. Rad. Sol.
00:05 20.9 64.0 1023.1 3.2 SW 3.2 SW 0.0 0.1
00:10 21.0 63.5 1023.1 2.7 SW 5.3 WSW 0.0 0.1
00:15 21.1 63.4 1023.1 2.6 SSW 4.9 SSW 0.0 0.1
00:20 21.1 63.6 1023.1 4.4 SSW 6.4 SSW 0.0 0.2
00:25 21.2 63.1 1023.0 4.1 SSW 9.2 SSW 0.0 0.1
00:30 21.4 62.4 1023.0 4.1 SSW 9.5 SW 0.0 0.1
00:35 21.4 62.1 1022.9 4.2 SW 7.8 SSW 0.0 0.1
00:40 21.4 62.2 1022.9 4.5 SSW 8.1 SSW 0.0 0.1
00:45 21.2 63.5 1022.8 5.1 SSW 9.5 SW 0.0 0.2
00:50 20.9 64.2 1022.8 4.4 SSW 7.4 SW 0.0 0.1
00:55 21.0 63.4 1022.8 4.1 SSW 7.1 S 0.0 0.1
01:00 21.0 62.8 1022.8 3.4 SSW 6.0 SW 0.0 0.1
01:05 21.0 62.9 1022.8 3.2 SSW 4.9 SSW 0.0 0.1
01:10 21.0 62.9 1022.8 3.5 SSW 5.6 SSE 0.0 0.1
01:15 21.2 62.4 1022.7 3.6 SW 6.4 SW 0.0 0.1
01:20 21.2 63.1 1022.7 3.6 SW 7.1 SW 0.0 0.1
01:25 20.7 65.4 1022.7 4.2 SW 6.4 SSW 0.0 0.2
01:30 20.4 67.3 1022.7 3.9 SW 6.7 SSW 0.0 0.2
01:35 20.2 69.3 1022.7 5.5 SW 11.3 SW 0.0 0.2
01:40 20.2 71.9 1022.7 5.8 SSW 11.6 SSW 0.0 0.1
01:45 20.3 74.1 1022.6 6.0 SW 11.3 SSW 0.0 0.1
01:50 20.4 75.6 1022.6 5.5 SW 12.0 SSW 0.0 0.1
01:55 20.5 76.0 1022.5 6.5 SW 13.4 SW 0.0 0.1
02:00 20.6 75.8 1022.5 5.9 SW 14.5 WSW 0.0 0.1
02:05 20.6 75.7 1022.4 5.9 SW 13.8 SSW 0.0 0.2
02:10 20.6 75.8 1022.4 6.2 SW 13.1 WSW 0.0 0.1
02:15 20.4 76.4 1022.3 5.0 SW 10.9 SW 0.0 0.2
02:20 20.3 76.8 1022.3 5.7 SW 14.5 SW 0.0 0.1
02:25 20.2 77.0 1022.2 4.9 SW 9.9 SW 0.0 0.1
02:30 20.2 77.0 1022.2 5.6 SW 12.4 SSW 0.0 0.2
02:35 20.2 76.7 1022.2 5.1 SW 12.0 SSW 0.0 0.1
02:40 20.1 76.6 1022.2 4.8 SW 13.1 SSW 0.0 0.1
02:45 20.1 76.7 1022.2 4.6 SW 11.6 SW 0.0 0.1
02:50 20.0 76.8 1022.2 5.0 SW 13.1 SW 0.0 0.1
02:55 20.0 76.8 1022.2 4.6 SW 11.6 SSW 0.0 0.1
03:00 19.9 76.9 1022.2 4.5 SW 9.5 SW 0.0 0.1
03:05 19.9 76.8 1022.1 4.8 SW 14.1 SSW 0.0 0.1
03:10 19.9 76.7 1022.1 5.3 SW 9.5 SW 0.0 0.1
03:15 19.9 76.4 1022.1 4.9 SW 10.9 SSW 0.0 0.1
03:20 19.9 76.2 1022.1 4.8 SW 11.6 S 0.0 0.1
03:25 19.9 76.1 1022.1 4.2 SW 9.5 SSW 0.0 0.1
03:30 20.0 75.5 1022.1 4.4 SW 10.6 S 0.0 0.2
03:35 20.2 75.1 1022.1 4.9 SW 9.5 SW 0.0 0.1
03:40 20.1 75.7 1022.1 5.7 SW 10.6 SSW 0.0 0.1
03:45 20.1 75.7 1022.1 4.3 SW 9.5 SW 0.0 0.1
03:50 20.0 76.8 1022.1 4.6 SW 11.3 SSW 0.0 0.1
03:55 19.8 77.7 1022.1 5.1 SW 12.4 WSW 0.0 0.1
04:00 19.9 77.2 1022.1 4.8 SW 11.6 SW 0.0 0.2
04:05 19.9 77.5 1022.1 5.2 SW 11.6 S 0.0 0.2
04:10 19.9 77.6 1022.1 5.5 SW 12.7 S 0.0 0.1
04:15 19.9 77.3 1022.1 4.7 SW 10.2 SSW 0.0 0.3
04:20 19.9 77.3 1022.1 4.4 SW 10.6 SSW 0.0 0.3
04:25 20.0 76.6 1022.1 4.5 SSW 9.5 SW 0.0 0.8
04:30 19.9 76.9 1022.1 3.9 SSW 10.6 W 0.0 1.7
04:35 20.0 76.6 1022.1 3.7 SW 12.4 W 0.0 2.9
04:40 20.0 76.0 1022.1 4.1 SW 10.2 SSW 0.0 4.8
04:45 20.0 75.9 1022.1 3.4 SW 9.2 SW 0.0 7.6
04:50 20.0 75.6 1022.1 4.0 SW 11.3 S 0.0 10.7
04:55 20.1 75.3 1022.0 3.4 SW 8.5 NW 0.0 16.0
05:00 20.0 75.3 1022.0 3.5 SW 8.1 SW 0.0 18.6
05:05 20.2 74.2 1022.0 2.8 SW 7.8 WSW 0.0 29.6
05:10 20.3 73.2 1022.0 3.0 SW 7.1 W 0.0 38.6
05:15 20.4 73.1 1022.0 2.8 SW 7.8 SSW 0.0 29.6
05:20 20.3 73.4 1022.0 2.2 SW 10.2 SSE 0.0 32.6
05:25 20.4 72.4 1022.0 2.9 SW 8.1 SW 0.0 32.9
05:30 20.5 71.8 1022.0 2.3 SW 7.1 WSW 0.0 35.6
05:35 20.7 71.6 1022.0 2.5 WSW 8.8 SSW 0.0 35.0
05:40 20.7 70.9 1022.0 3.4 WSW 9.9 SSW 0.0 44.7
05:45 20.8 70.3 1022.0 2.3 SW 5.3 SW 0.0 47.6
05:50 20.9 69.5 1022.0 1.8 SW 8.1 WNW 0.0 46.0
05:55 21.1 67.7 1022.0 1.1 W 4.2 WNW 0.0 65.6
06:00 21.3 66.5 1022.0 2.3 WNW 7.4 NW 0.0 46.8
06:05 21.3 66.2 1022.0 2.4 WNW 7.4 NNW 0.0 130.4
06:10 21.3 66.7 1022.0 3.4 WNW 9.5 WNW 0.0 189.7
06:15 21.4 66.4 1022.0 3.2 WNW 8.8 NNW 0.0 208.2
06:20 21.4 65.7 1022.0 3.1 W 10.9 SW 0.0 227.1
06:25 21.5 66.1 1022.1 2.4 W 8.5 S 0.0 242.5
06:30 21.7 65.5 1022.1 2.8 W 7.8 W 0.0 260.0
06:35 21.7 65.9 1022.1 4.0 SW 12.4 SSE 0.0 278.2
06:40 21.8 65.8 1022.1 2.8 W 7.1 WNW 0.0 294.6
06:45 21.9 64.0 1022.1 2.2 WSW 7.4 SW 0.0 314.4
06:50 22.0 64.3 1022.1 3.6 S 14.5 S 0.0 330.8
06:55 22.0 64.9 1022.0 2.5 SW 7.1 SE 0.0 347.6
07:00 21.9 64.5 1022.0 4.8 SW 9.9 SSW 0.0 364.8
07:05 21.8 65.2 1022.1 1.8 WSW 8.5 WSW 0.0 381.2
07:10 21.9 63.8 1022.1 3.7 WSW 11.3 S 0.0 395.9
07:15 21.9 64.7 1022.1 2.6 WSW 15.2 WNW 0.0 413.9
07:20 22.2 63.7 1022.1 3.5 SSW 14.1 S 0.0 426.8
07:25 22.5 62.9 1022.2 1.6 ESE 5.3 SSE 0.0 442.4
07:30 22.6 62.2 1022.2 4.1 SSE 8.5 S 0.0 457.6
07:35 22.4 64.2 1022.2 1.9 WSW 8.5 SW 0.0 474.1
07:40 22.7 64.9 1022.2 2.1 ENE 6.7 NE 0.0 487.9
07:45 23.2 63.0 1022.1 1.0 N 5.6 NW 0.0 502.3
07:50 23.2 64.0 1022.1 2.0 E 4.9 E 0.0 518.0
07:55 23.2 63.3 1022.1 1.4 E 7.1 ENE 0.0 532.0
08:00 23.2 64.7 1022.1 2.5 NNE 6.7 E 0.0 546.9
08:05 23.6 64.7 1022.1 3.7 NE 7.1 ENE 0.0 559.5
08:10 23.6 63.6 1022.1 2.5 E 8.8 E 0.0 574.3
08:15 23.5 62.7 1022.1 1.5 E 4.6 ENE 0.0 587.5
08:20 23.4 64.2 1022.1 1.4 E 4.9 S 0.0 602.4
08:25 23.7 61.9 1022.1 4.0 NE 12.4 W 0.0 619.7
08:30 23.7 58.1 1022.1 6.3 WSW 14.1 SSW 0.0 634.1
08:35 23.7 58.7 1022.0 7.2 SSW 15.9 SSW 0.0 649.0
08:40 23.8 57.7 1022.0 5.5 SE 14.1 S 0.0 662.7
08:45 24.1 58.0 1022.0 2.1 ENE 5.3 NE 0.0 675.7
08:50 24.0 55.9 1022.0 3.9 W 13.1 WSW 0.0 689.0
08:55 24.2 58.7 1022.0 4.2 SE 14.5 S 0.0 701.1
09:00 24.5 54.0 1022.0 4.8 WNW 12.4 NNW 0.0 713.0
09:05 24.6 57.3 1021.9 5.9 E 13.4 ESE 0.0 721.3
09:10 24.9 53.5 1021.9 2.2 NNE 8.1 SE 0.0 736.0
09:15 24.9 54.3 1022.0 4.2 SE 15.5 ESE 0.0 747.1
09:20 24.9 53.7 1022.0 5.5 NW 10.2 NW 0.0 756.5
09:25 25.1 56.2 1021.8 6.0 SSE 12.4 NW 0.0 765.0
09:30 25.4 56.5 1021.8 5.2 SE 12.4 ENE 0.0 776.4
09:35 25.3 53.6 1021.9 2.8 WNW 14.1 W 0.0 787.4
09:40 25.7 53.0 1021.9 1.7 NNE 17.6 N 0.0 791.9
09:45 25.5 54.8 1021.9 4.3 NNE 14.1 NNW 0.0 804.0
09:50 25.6 54.7 1021.9 3.3 ESE 8.5 E 0.0 812.0
09:55 25.1 53.8 1021.9 2.5 N 6.0 NNW 0.0 822.0
10:00 25.4 56.0 1021.9 2.2 E 5.6 E 0.0 830.0
10:05 26.1 55.6 1021.8 2.8 NE 6.4 ENE 0.0 838.0
10:10 26.3 54.6 1021.8 3.1 NNE 7.8 N 0.0 844.0
10:15 26.0 55.2 1021.7 5.4 ENE 9.9 NE 0.0 854.0
10:20 26.2 55.7 1021.7 3.2 NE 8.1 NNE 0.0 862.0
10:25 25.8 57.0 1021.7 2.1 ENE 7.4 SSE 0.0 804.0
10:30 25.9 56.1 1021.7 3.3 NE 9.9 E 0.0 874.0
10:35 26.2 57.9 1021.6 3.4 E 8.1 E 0.0 884.0
10:40 26.5 55.4 1021.6 3.7 ENE 11.3 E 0.0 884.0
10:45 26.3 55.8 1021.6 3.4 E 10.2 E 0.0 889.0
10:50 26.3 56.2 1021.6 3.4 NE 8.8 ENE 0.0 803.0
10:55 26.1 56.0 1021.5 4.6 ENE 11.3 ENE 0.0 907.0
11:00 26.1 57.5 1021.5 5.8 E 13.1 ENE 0.0 704.9
11:05 25.7 60.2 1021.5 5.4 ENE 12.0 NE 0.0 818.0
11:10 25.8 60.9 1021.5 5.5 ENE 13.4 E 0.0 918.0
11:15 26.1 62.0 1021.4 7.1 E 14.8 E 0.0 920.0
11:20 26.5 61.7 1021.4 8.0 E 16.2 E 0.0 784.7
11:25 26.2 62.7 1021.4 7.1 ENE 14.1 ENE 0.0 839.0
11:30 26.1 63.4 1021.4 8.3 E 19.4 ENE 0.0 925.0
11:35 26.2 63.2 1021.3 9.4 E 18.7 ENE 0.0 930.0
11:40 26.0 63.3 1021.3 10.0 ENE 20.5 ENE 0.0 933.0
11:45 26.0 64.1 1021.3 9.8 ENE 23.6 ESE 0.0 937.0
11:50 26.1 63.8 1021.3 9.4 E 16.9 E 0.0 937.0
11:55 25.9 64.3 1021.2 10.7 E 21.2 ENE 0.0 934.0
12:00 25.9 65.0 1021.2 9.6 ENE 19.4 E 0.0 928.0
12:05 26.0 64.8 1021.0 10.6 E 19.8 ENE 0.0 929.0
12:10 25.9 65.3 1021.0 7.9 ENE 15.9 ENE 0.0 935.0
12:15 26.1 65.2 1021.0 9.1 E 16.2 E 0.0 932.0
12:20 26.0 66.1 1021.0 8.5 E 19.8 E 0.0 928.0
12:25 25.8 67.0 1021.0 10.2 E 21.9 E 0.0 923.0
12:30 25.5 67.5 1021.0 10.1 E 19.8 ENE 0.0 926.0
12:35 25.5 68.6 1021.0 9.9 E 18.7 ENE 0.0 918.0
12:40 25.7 67.7 1021.0 9.9 E 21.5 E 0.0 913.0
12:45 25.4 68.6 1020.9 10.7 E 18.7 ESE 0.0 911.0
12:50 25.4 68.7 1020.9 9.9 E 17.3 E 0.0 906.0
12:55 25.5 69.0 1020.9 9.9 E 19.1 E 0.0 908.0
13:00 25.6 68.8 1020.9 9.9 E 20.5 ENE 0.0 905.0
13:05 25.5 68.2 1020.8 10.0 ENE 19.1 NE 0.0 888.0
13:10 25.3 69.2 1020.8 9.7 ENE 17.3 ENE 0.0 885.0
13:15 25.5 69.1 1020.8 9.8 E 18.4 E 0.0 886.0
13:20 25.7 68.5 1020.8 8.5 E 16.6 ESE 0.0 881.0
13:25 25.5 69.3 1020.7 8.6 E 17.3 E 0.0 867.0
13:30 25.8 69.0 1020.7 10.1 E 18.7 E 0.0 862.0
13:35 25.7 68.1 1020.6 8.8 E 15.9 ENE 0.0 859.0
13:40 25.7 68.8 1020.6 8.3 E 16.9 NE 0.0 870.0
13:45 26.2 67.7 1020.6 9.2 ESE 18.0 E 0.0 857.0
13:50 25.5 67.9 1020.6 8.4 E 19.1 E 0.0 837.0
13:55 25.4 69.2 1020.5 8.1 E 19.8 NE 0.0 846.0
14:00 25.9 67.6 1020.5 7.7 E 15.5 ENE 0.0 742.0
14:05 25.8 67.8 1020.4 8.8 E 19.1 ESE 0.0 813.0
14:10 25.8 66.4 1020.4 8.0 E 16.2 E 0.0 622.9
14:15 24.9 68.3 1020.4 8.3 E 16.2 ENE 0.0 628.7
14:20 25.1 67.4 1020.4 10.0 E 19.4 ENE 0.0 765.3
14:25 25.3 65.4 1020.3 9.8 E 18.4 E 0.0 757.0
14:30 25.2 64.7 1020.3 10.6 E 19.8 E 0.0 740.5
14:35 25.2 65.5 1020.2 8.8 E 17.3 ESE 0.0 633.2
14:40 25.2 63.2 1020.2 10.4 E 20.8 E 0.0 714.8
14:45 25.1 63.8 1020.2 9.0 E 17.3 ENE 0.0 689.6
14:50 25.1 62.8 1020.2 8.6 E 16.2 ESE 0.0 685.7
14:55 25.2 62.7 1020.2 9.3 E 18.0 ENE 0.0 679.4
15:00 25.3 61.9 1020.2 7.9 E 14.8 ESE 0.0 591.8
15:05 25.3 61.1 1020.1 7.4 E 16.2 ENE 0.0 631.2
15:10 25.2 62.2 1020.1 8.6 E 16.9 E 0.0 535.1
15:15 24.8 64.4 1020.1 7.7 E 13.8 ENE 0.0 223.6
15:20 24.1 68.5 1020.1 8.5 E 18.4 E 0.0 266.5
15:25 24.0 71.0 1020.0 7.4 ESE 18.4 ESE 0.0 282.6
15:30 24.0 72.2 1020.0 8.2 E 16.6 ESE 0.0 457.7
15:35 24.3 72.3 1020.0 7.3 E 15.5 ESE 0.0 611.9
15:40 24.6 71.3 1020.0 7.7 E 13.8 E 0.0 495.5
15:45 24.4 71.8 1019.9 7.1 E 13.4 E 0.0 335.3
15:50 24.0 72.6 1019.9 7.4 E 13.4 E 0.0 219.5
15:55 23.6 73.8 1019.9 6.6 E 11.6 E 0.0 272.2
16:00 23.7 74.2 1019.9 7.0 E 13.4 E 0.0 422.2
16:05 23.9 72.5 1019.8 7.5 E 13.4 ESE 0.0 569.4
16:10 24.0 72.3 1019.8 7.3 E 13.8 E 0.0 494.9
16:15 23.9 72.5 1019.7 6.1 E 12.7 E 0.0 449.3
16:20 23.8 73.2 1019.7 6.9 E 13.4 E 0.0 381.7
16:25 23.7 72.6 1019.7 5.9 E 9.9 ESE 0.0 139.4
16:30 23.6 73.5 1019.7 6.2 ESE 11.3 E 0.0 118.1
16:35 23.4 73.6 1019.7 5.4 E 9.5 ESE 0.0 156.8
16:40 23.3 73.9 1019.7 5.4 E 9.9 ESE 0.0 157.5
16:45 23.2 75.5 1019.7 6.6 E 11.6 E 0.0 118.3
16:50 23.1 73.9 1019.7 6.2 E 10.9 E 0.0 107.8
16:55 22.9 72.1 1019.6 6.0 E 15.5 E 0.0 101.7
17:00 22.7 71.5 1019.6 6.5 ESE 13.4 E 0.0 106.5
17:05 22.6 71.5 1019.6 7.2 ESE 14.5 E 0.0 85.6
17:10 22.5 71.8 1019.6 6.9 ESE 14.8 E 0.0 75.4
17:15 22.5 71.0 1019.6 7.8 E 13.4 ESE 0.0 77.8
17:20 22.4 71.9 1019.6 5.6 ESE 11.6 ESE 0.0 71.1
17:25 22.2 73.6 1019.6 6.2 ESE 12.0 E 0.0 76.1
17:30 22.1 73.7 1019.6 5.7 ESE 11.3 ENE 0.0 114.4
17:35 22.1 73.3 1019.6 6.8 E 13.1 E 0.0 63.0
17:40 22.1 73.4 1019.6 7.0 E 11.6 E 0.0 58.9
17:45 21.9 76.0 1019.6 5.6 ESE 10.6 E 0.0 59.6
17:50 21.8 77.2 1019.6 5.2 E 10.9 E 0.0 55.7
17:55 21.8 77.4 1019.6 6.1 E 10.9 E 0.0 51.8
18:00 21.7 78.0 1019.6 4.9 ESE 10.2 E 0.0 48.4
18:05 21.5 78.2 1019.6 5.0 E 7.8 ESE 0.0 44.3
18:10 21.5 77.1 1019.6 5.6 E 8.5 E 0.0 43.9
18:15 21.5 76.3 1019.5 6.2 E 9.9 E 0.0 44.8
18:20 21.4 75.8 1019.5 5.3 ESE 9.5 E 0.0 45.6
18:25 21.4 75.8 1019.6 5.3 E 9.5 E 0.0 39.5
18:30 21.4 74.9 1019.6 6.4 E 9.5 E 0.0 34.8
18:35 21.4 75.8 1019.6 4.4 E 9.5 E 0.0 31.7
18:40 21.2 76.5 1019.6 5.2 E 9.9 E 0.0 28.9
18:45 21.1 76.9 1019.7 4.6 E 8.5 E 0.0 23.9
18:50 21.0 78.1 1019.7 4.2 ESE 7.1 E 0.0 18.6
18:55 20.8 78.6 1019.7 5.2 ESE 9.9 E 0.0 15.5
19:00 20.7 79.1 1019.7 3.5 ESE 7.4 SE 0.0 11.8
19:05 20.6 79.4 1019.7 3.8 ESE 7.1 ESE 0.0 8.9
19:10 20.5 79.3 1019.7 3.8 ESE 6.7 E 0.0 6.2
19:15 20.4 78.0 1019.7 4.9 ESE 9.2 ESE 0.0 4.2
19:20 20.3 77.3 1019.7 5.0 ESE 8.1 ESE 0.0 2.9
19:25 20.4 78.2 1019.7 4.4 ESE 7.8 E 0.0 1.8
19:30 20.5 79.3 1019.7 4.8 ESE 8.1 ESE 0.0 0.9
19:35 20.6 80.5 1019.8 3.9 ESE 5.6 E 0.0 0.4
19:40 20.5 81.8 1019.8 3.8 ESE 6.7 E 0.0 0.2
19:45 20.4 83.2 1019.8 4.6 ESE 7.8 ESE 0.0 0.2
19:50 20.4 83.4 1019.8 4.5 ESE 7.1 ESE 0.0 0.2
19:55 20.6 82.8 1019.8 3.9 E 9.5 ENE 0.0 0.2
20:00 20.6 82.1 1019.8 4.4 ESE 6.7 E 0.0 0.1
20:05 20.5 82.0 1019.9 3.8 ESE 6.7 E 0.0 0.1
20:10 20.5 82.0 1019.9 4.2 E 7.1 E 0.0 0.1
20:15 20.5 81.9 1019.9 3.6 ESE 6.7 E 0.0 0.1
20:20 20.5 80.8 1019.9 3.6 ESE 7.1 E 0.0 0.1
20:25 20.4 79.9 1019.9 3.1 ESE 5.3 E 0.0 0.1
20:30 20.3 79.8 1019.9 4.8 E 6.7 E 0.0 0.1
20:35 20.4 78.5 1020.0 4.7 E 7.4 E 0.0 0.1
20:40 20.4 78.1 1020.0 4.5 E 7.1 ESE 0.0 0.1
20:45 20.4 78.8 1019.9 4.7 E 7.1 E 0.0 0.1
20:50 20.4 79.0 1019.9 4.5 E 9.9 ENE 0.0 0.1
20:55 20.3 80.0 1019.9 4.3 E 7.8 E 0.0 0.1
21:00 20.2 80.7 1019.9 4.8 E 8.5 E 0.0 0.2
21:05 20.3 80.6 1019.9 4.2 E 7.8 ESE 0.0 0.1
21:10 20.1 82.2 1019.9 3.6 ESE 7.4 E 0.0 0.1
21:15 19.9 83.7 1019.9 4.0 ESE 7.1 E 0.0 0.1
21:20 19.7 85.3 1019.9 4.1 ESE 9.5 ESE 0.0 0.1
Máxima 26.6 85.3 1023.1 10.7 E 23.6 ESE 0.0 937.0
Mínima 19.3 53.0 1019.5
Total 0.0